Absarokee, Montana
Current Conditions -  °F | °C
As of 12:53 PM on Thursday 23 Oct 2014 (Local Time) from KBIL Reporting Station
Broken Clouds Broken Clouds  
Wind Chill: 68°   Ceiling: 20000
Heat Index: 68°   Visibility: 10mi
Dew Point: 28°   Wind: 12mph
Humidity: 22%   Direction: 240°WSW
Pressure: 29.9"   Gusts: NA
Location:  45.53°N, 109.43°W
Report Text: KBIL 231853Z 24010KT 10SM FEW090 BKN200 20/M02 A2990 RMK AO2 SLP106 ACSL ALQDS T02001022
Loading
Personal Weather Stations






























Interactive Weather Map
Tropical Storm Tracking
New forecast layout! Learn more

10-Day Weather Forecast

Advertisements
Track Severe Weather on mobile